Campton, New Hampshire
Current Conditions -  °F | °C
As of 7:55 AM on Thursday 23 Oct 2014 (Local Time) from K1P1 Reporting Station
Light Rain Light Rain  
Wind Chill: 54°   Ceiling: 3100
Heat Index: 54°   Visibility: 10mi
Dew Point: 49°   Wind: 3mph
Humidity: 85%   Direction: 350°N
Pressure: 29.82"   Gusts: NA
Location:  43.86°N, 71.65°W
Report Text: K1P1 231155Z AUTO 35003KT 10SM -RA OVC031 12/10 A2982 RMK AO2 LTG DSNT SE 60006 70019 T01200096 10120 20093
Loading
Personal Weather Stations






























Interactive Weather Map
Tropical Storm Tracking
New forecast layout! Learn more

10-Day Weather Forecast

Advertisements
Track Severe Weather on mobile